createdAt,value
2018-10-17T00:00:09.174Z,16.60
2018-10-17T00:02:37.691Z,16.61
2018-10-17T00:05:07.049Z,16.48
2018-10-17T00:07:35.563Z,16.51
2018-10-17T00:10:04.406Z,16.55
2018-10-17T00:12:32.886Z,16.58
2018-10-17T00:15:01.451Z,16.59
2018-10-17T00:17:30.106Z,16.58
2018-10-17T00:19:58.587Z,16.55
2018-10-17T00:22:27.191Z,16.53
2018-10-17T00:24:55.784Z,16.50
2018-10-17T00:27:24.352Z,16.50
2018-10-17T00:29:52.912Z,16.43
2018-10-17T00:32:21.404Z,16.38
2018-10-17T00:34:49.989Z,16.40
2018-10-17T00:37:18.466Z,16.40
2018-10-17T00:39:47.065Z,16.38
2018-10-17T00:42:15.576Z,16.30
2018-10-17T00:44:44.129Z,16.26
2018-10-17T00:47:12.671Z,16.25
2018-10-17T00:49:41.197Z,16.26
2018-10-17T00:52:09.963Z,16.22
2018-10-17T00:54:38.533Z,16.20
2018-10-17T00:57:07.062Z,16.21
2018-10-17T00:59:35.647Z,16.19
2018-10-17T01:02:04.227Z,16.18
2018-10-17T01:04:32.794Z,16.22
2018-10-17T01:07:01.364Z,16.21
2018-10-17T01:09:29.975Z,16.20
2018-10-17T01:11:58.550Z,16.21
2018-10-17T01:14:27.540Z,16.16
2018-10-17T01:16:56.059Z,16.19
2018-10-17T01:19:24.605Z,16.09
2018-10-17T01:21:53.156Z,16.08
2018-10-17T01:24:21.697Z,16.09
2018-10-17T01:26:50.183Z,15.97
2018-10-17T01:29:18.727Z,16.01
2018-10-17T01:31:47.264Z,15.89
2018-10-17T01:34:15.771Z,15.81
2018-10-17T01:36:44.277Z,15.77
2018-10-17T01:39:12.804Z,15.70
2018-10-17T01:41:41.376Z,15.75
2018-10-17T01:44:09.893Z,15.64
2018-10-17T01:46:38.381Z,15.57
2018-10-17T01:49:07.027Z,15.51
2018-10-17T01:51:35.499Z,15.55
2018-10-17T01:54:04.070Z,15.53
2018-10-17T01:56:32.675Z,15.47
2018-10-17T01:59:01.872Z,15.41
2018-10-17T02:01:30.413Z,15.43
2018-10-17T02:03:58.904Z,15.40
2018-10-17T02:06:27.463Z,15.38
2018-10-17T02:08:55.984Z,15.44
2018-10-17T02:11:24.562Z,15.51
2018-10-17T02:13:53.063Z,15.48
2018-10-17T02:16:21.590Z,15.47
2018-10-17T02:18:50.068Z,15.50
2018-10-17T02:21:18.676Z,15.49
2018-10-17T02:23:47.275Z,15.46
2018-10-17T02:26:15.852Z,15.50
2018-10-17T02:28:44.510Z,15.55
2018-10-17T02:31:13.068Z,15.54
2018-10-17T02:33:41.527Z,15.60
2018-10-17T02:36:10.062Z,15.65
2018-10-17T02:38:38.582Z,15.70
2018-10-17T02:41:07.156Z,15.80
2018-10-17T02:43:35.590Z,15.87
2018-10-17T02:46:04.090Z,15.85
2018-10-17T02:48:32.593Z,15.83
2018-10-17T02:51:01.109Z,15.73
2018-10-17T02:53:29.587Z,15.76
2018-10-17T02:55:58.151Z,15.77
2018-10-17T02:58:26.911Z,15.80
2018-10-17T03:00:55.533Z,15.80
2018-10-17T03:03:23.985Z,15.84
2018-10-17T03:05:52.511Z,15.85
2018-10-17T03:08:21.021Z,15.78
2018-10-17T03:10:49.690Z,15.66
2018-10-17T03:13:18.369Z,15.63
2018-10-17T03:15:46.800Z,15.70
2018-10-17T03:18:15.294Z,15.67
2018-10-17T03:20:43.883Z,15.73
2018-10-17T03:23:12.536Z,15.64
2018-10-17T03:25:41.092Z,15.69
2018-10-17T03:28:09.704Z,15.77
2018-10-17T03:30:38.278Z,15.77
2018-10-17T03:33:07.544Z,15.72
2018-10-17T03:35:37.308Z,15.68
2018-10-17T03:38:06.103Z,15.71
2018-10-17T03:40:34.658Z,15.68
2018-10-17T03:43:03.555Z,15.58
2018-10-17T03:45:32.120Z,15.63
2018-10-17T03:48:01.180Z,15.64
2018-10-17T03:50:29.901Z,15.53
2018-10-17T03:52:58.521Z,15.55
2018-10-17T03:55:27.179Z,15.44
2018-10-17T03:57:55.782Z,15.39
2018-10-17T04:00:24.399Z,15.33
2018-10-17T04:02:53.020Z,15.21
2018-10-17T04:05:21.507Z,15.14
2018-10-17T04:07:50.036Z,15.14
2018-10-17T04:10:18.635Z,15.12
2018-10-17T04:12:47.171Z,15.09
2018-10-17T04:15:15.667Z,15.14
2018-10-17T04:17:44.323Z,15.02
2018-10-17T04:20:12.806Z,14.93
2018-10-17T04:22:46.164Z,14.93
2018-10-17T04:25:15.687Z,14.94
2018-10-17T04:27:51.182Z,14.95
2018-10-17T04:30:19.804Z,14.90
2018-10-17T04:32:48.349Z,14.81
2018-10-17T04:35:16.917Z,14.83
2018-10-17T04:37:45.498Z,14.77
2018-10-17T04:40:14.031Z,14.67
2018-10-17T04:42:43.334Z,14.60
2018-10-17T04:45:12.055Z,14.64
2018-10-17T04:47:40.693Z,14.58
2018-10-17T04:50:10.355Z,14.54
2018-10-17T04:52:39.231Z,14.61
2018-10-17T04:55:08.528Z,14.53
2018-10-17T04:57:37.086Z,14.48
2018-10-17T05:00:07.753Z,14.49
2018-10-17T05:02:36.459Z,14.42
2018-10-17T05:05:05.308Z,14.35
2018-10-17T05:07:33.958Z,14.36
2018-10-17T05:10:02.623Z,14.31
2018-10-17T05:12:31.428Z,14.32
2018-10-17T05:15:00.130Z,14.26
2018-10-17T05:17:28.794Z,14.25
2018-10-17T05:19:57.329Z,14.31
2018-10-17T05:22:25.844Z,14.32
2018-10-17T05:24:54.406Z,14.34
2018-10-17T05:27:22.930Z,14.26
2018-10-17T05:29:51.798Z,14.18
2018-10-17T05:32:20.258Z,14.14
2018-10-17T05:34:48.760Z,14.16
2018-10-17T05:37:17.418Z,14.14
2018-10-17T05:39:45.890Z,14.10
2018-10-17T05:42:14.515Z,14.00
2018-10-17T05:44:43.099Z,13.99
2018-10-17T05:47:11.785Z,13.98
2018-10-17T05:49:40.412Z,13.89
2018-10-17T05:52:09.499Z,13.86
2018-10-17T05:54:38.011Z,13.75
2018-10-17T05:57:07.185Z,13.70
2018-10-17T05:59:35.740Z,13.65
2018-10-17T06:02:08.522Z,13.60
2018-10-17T06:04:37.095Z,13.62
2018-10-17T06:07:05.972Z,13.59
2018-10-17T06:09:34.514Z,13.57
2018-10-17T06:12:03.042Z,13.53
2018-10-17T06:14:31.714Z,13.47
2018-10-17T06:17:00.378Z,13.44
2018-10-17T06:19:28.867Z,13.45
2018-10-17T06:21:57.403Z,13.43
2018-10-17T06:24:25.921Z,13.44
2018-10-17T06:26:54.536Z,13.45
2018-10-17T06:29:23.163Z,13.45
2018-10-17T06:31:51.789Z,13.38
2018-10-17T06:34:20.561Z,13.36
2018-10-17T06:36:49.670Z,13.42
2018-10-17T06:39:18.247Z,13.41
2018-10-17T06:41:47.602Z,13.45
2018-10-17T06:44:16.163Z,13.49
2018-10-17T06:46:44.661Z,13.52
2018-10-17T06:49:13.349Z,13.57
2018-10-17T06:51:41.890Z,13.59
2018-10-17T06:54:10.481Z,13.62
2018-10-17T06:56:39.083Z,13.64
2018-10-17T06:59:07.729Z,13.61
2018-10-17T07:01:36.902Z,13.62
2018-10-17T07:04:05.635Z,13.63
2018-10-17T07:06:34.293Z,13.61
2018-10-17T07:09:04.164Z,13.60
2018-10-17T07:11:32.709Z,13.61
2018-10-17T07:14:01.333Z,13.58
2018-10-17T07:16:29.859Z,13.53
2018-10-17T07:18:58.406Z,13.60
2018-10-17T07:21:26.899Z,13.64
2018-10-17T07:23:55.493Z,13.69
2018-10-17T07:26:24.053Z,13.73
2018-10-17T07:28:53.000Z,13.79
2018-10-17T07:31:21.666Z,13.79
2018-10-17T07:33:50.187Z,13.85
2018-10-17T07:36:19.495Z,13.86
2018-10-17T07:38:48.066Z,13.84
2018-10-17T07:41:16.662Z,13.86
2018-10-17T07:43:45.855Z,13.91
2018-10-17T07:46:14.398Z,13.95
2018-10-17T07:48:42.999Z,13.99
2018-10-17T07:51:11.565Z,13.94
2018-10-17T07:53:41.328Z,13.91
2018-10-17T07:56:10.849Z,14.00
2018-10-17T07:58:39.395Z,14.22
2018-10-17T08:01:07.923Z,14.33
2018-10-17T08:03:36.490Z,14.37
2018-10-17T08:06:05.768Z,14.49
2018-10-17T08:08:34.339Z,14.60
2018-10-17T08:11:03.480Z,14.76
2018-10-17T08:13:32.112Z,14.82
2018-10-17T08:16:00.709Z,14.90
2018-10-17T08:18:30.020Z,15.06
2018-10-17T08:20:58.553Z,15.08
2018-10-17T08:23:27.109Z,15.22
2018-10-17T08:25:55.616Z,15.26
2018-10-17T08:28:24.204Z,15.29
2018-10-17T08:30:52.808Z,15.30
2018-10-17T08:33:22.361Z,15.39
2018-10-17T08:35:51.025Z,15.47
2018-10-17T08:38:19.486Z,15.50
2018-10-17T08:40:48.091Z,15.55
2018-10-17T08:43:16.681Z,15.55
2018-10-17T08:45:45.258Z,15.62
2018-10-17T08:48:13.754Z,15.63
2018-10-17T08:50:43.267Z,15.60
2018-10-17T08:53:11.809Z,15.60
2018-10-17T08:55:40.402Z,15.74
2018-10-17T08:58:09.041Z,15.74
2018-10-17T09:00:37.574Z,15.83
2018-10-17T09:03:06.259Z,16.01
2018-10-17T09:05:35.455Z,16.11
2018-10-17T09:08:05.575Z,16.21
2018-10-17T09:10:34.059Z,16.27
2018-10-17T09:13:02.641Z,16.27
2018-10-17T09:15:31.179Z,16.36
2018-10-17T09:17:59.723Z,16.50
2018-10-17T09:20:28.287Z,16.63
2018-10-17T09:22:56.810Z,16.74
2018-10-17T09:25:25.463Z,16.81
2018-10-17T09:27:54.123Z,16.84
2018-10-17T09:30:22.766Z,17.07
2018-10-17T09:32:51.285Z,16.99
2018-10-17T09:35:20.019Z,17.18
2018-10-17T09:37:48.479Z,17.39
2018-10-17T09:40:17.083Z,17.49
2018-10-17T09:42:45.715Z,17.51
2018-10-17T09:45:14.274Z,17.59
2018-10-17T09:47:49.289Z,17.73
2018-10-17T09:50:17.826Z,17.63
2018-10-17T09:52:46.336Z,17.88
2018-10-17T09:55:14.939Z,18.01
2018-10-17T09:57:43.446Z,18.15
2018-10-17T10:00:17.093Z,18.16
2018-10-17T10:02:45.575Z,18.27
2018-10-17T10:05:14.201Z,18.15
2018-10-17T10:07:42.742Z,18.31
2018-10-17T10:10:11.361Z,18.34
2018-10-17T10:12:39.911Z,18.39
2018-10-17T10:15:08.694Z,18.52
2018-10-17T10:17:37.340Z,18.53
2018-10-17T10:20:05.915Z,18.58
2018-10-17T10:22:34.492Z,18.53
2018-10-17T10:25:03.368Z,18.46
2018-10-17T10:27:31.952Z,18.44
2018-10-17T10:30:00.510Z,18.58
2018-10-17T10:32:29.039Z,18.69
2018-10-17T10:34:57.601Z,18.66
2018-10-17T10:37:26.097Z,18.97
2018-10-17T10:39:54.676Z,18.96
2018-10-17T10:42:23.207Z,19.07
2018-10-17T10:44:51.768Z,19.01
2018-10-17T10:47:20.265Z,18.86
2018-10-17T10:49:48.790Z,18.91
2018-10-17T10:52:17.289Z,18.90
2018-10-17T10:54:45.794Z,19.17
2018-10-17T10:57:14.373Z,19.34
2018-10-17T10:59:43.027Z,19.47
2018-10-17T11:02:11.579Z,19.47
2018-10-17T11:04:40.235Z,19.56
2018-10-17T11:07:08.821Z,19.56
2018-10-17T11:09:37.321Z,19.60
2018-10-17T11:12:06.028Z,19.58
2018-10-17T11:14:34.706Z,19.64
2018-10-17T11:17:03.131Z,19.72
2018-10-17T11:19:31.631Z,19.56
2018-10-17T11:22:00.344Z,19.57
2018-10-17T11:24:28.791Z,19.69
2018-10-17T11:26:57.344Z,19.69
2018-10-17T11:29:25.917Z,19.97
2018-10-17T11:31:54.425Z,20.00
2018-10-17T11:34:22.975Z,20.01
2018-10-17T11:36:51.558Z,19.98
2018-10-17T11:39:20.081Z,20.15
2018-10-17T11:41:48.542Z,20.28
2018-10-17T11:44:17.119Z,20.56
2018-10-17T11:46:45.605Z,20.31
2018-10-17T11:49:14.094Z,20.44
2018-10-17T11:51:42.637Z,20.63
2018-10-17T11:54:11.175Z,20.63
2018-10-17T11:56:39.735Z,20.70
2018-10-17T11:59:08.287Z,20.54
2018-10-17T12:01:36.807Z,20.45
2018-10-17T12:04:05.580Z,20.66
2018-10-17T12:06:33.907Z,20.37
2018-10-17T12:09:02.527Z,20.25
2018-10-17T12:11:31.161Z,20.31
2018-10-17T12:13:59.578Z,20.31
2018-10-17T12:16:28.245Z,20.47
2018-10-17T12:18:56.898Z,20.15
2018-10-17T12:21:25.526Z,20.24
2018-10-17T12:23:54.192Z,20.35
2018-10-17T12:26:22.721Z,20.44
2018-10-17T12:28:51.327Z,20.58
2018-10-17T12:31:19.821Z,20.65
2018-10-17T12:33:48.380Z,20.61
2018-10-17T12:36:16.926Z,20.52
2018-10-17T12:38:45.462Z,20.56
2018-10-17T12:41:14.026Z,20.61
2018-10-17T12:43:42.559Z,20.15
2018-10-17T12:46:11.029Z,20.22
2018-10-17T12:48:39.567Z,20.35
2018-10-17T12:51:08.115Z,20.41
2018-10-17T12:53:36.653Z,20.25
2018-10-17T12:56:05.505Z,20.30
2018-10-17T12:58:33.949Z,20.53
2018-10-17T13:01:02.674Z,20.47
2018-10-17T13:03:31.227Z,20.37
2018-10-17T13:05:59.797Z,20.47
2018-10-17T13:08:28.371Z,20.71
2018-10-17T13:10:58.080Z,20.69
2018-10-17T13:13:26.648Z,20.74
2018-10-17T13:15:55.210Z,20.64
2018-10-17T13:18:23.874Z,20.70
2018-10-17T13:20:52.362Z,20.74
2018-10-17T13:23:21.023Z,20.66
2018-10-17T13:25:49.599Z,20.43
2018-10-17T13:28:18.202Z,20.42
2018-10-17T13:30:46.759Z,20.41
2018-10-17T13:33:15.378Z,20.45
2018-10-17T13:35:43.979Z,20.36
2018-10-17T13:38:12.578Z,20.59
2018-10-17T13:40:41.078Z,20.49
2018-10-17T13:43:09.850Z,20.47
2018-10-17T13:45:38.352Z,20.47
2018-10-17T13:48:06.845Z,20.48
2018-10-17T13:50:35.378Z,20.29
2018-10-17T13:53:03.980Z,20.55
2018-10-17T13:55:32.547Z,20.63
2018-10-17T13:58:01.335Z,20.60
2018-10-17T14:00:29.866Z,20.61
2018-10-17T14:02:58.576Z,20.61
2018-10-17T14:05:27.263Z,20.54
2018-10-17T14:07:55.968Z,20.35
2018-10-17T14:10:24.506Z,20.48
2018-10-17T14:12:53.261Z,20.48
2018-10-17T14:15:21.922Z,20.53
2018-10-17T14:17:50.507Z,20.33
2018-10-17T14:20:19.020Z,20.28
2018-10-17T14:22:47.745Z,20.21
2018-10-17T14:25:16.220Z,20.28
2018-10-17T14:27:44.851Z,20.28
2018-10-17T14:30:13.499Z,20.17
2018-10-17T14:32:42.065Z,20.05
2018-10-17T14:35:11.946Z,20.02
2018-10-17T14:37:40.526Z,19.98
2018-10-17T14:40:09.886Z,19.95
2018-10-17T14:42:38.578Z,19.89
2018-10-17T14:45:08.621Z,19.85
2018-10-17T14:47:37.097Z,19.87
2018-10-17T14:50:05.684Z,19.77
2018-10-17T14:52:34.245Z,19.73
2018-10-17T14:55:02.737Z,19.72
2018-10-17T14:57:31.407Z,19.77
2018-10-17T14:59:59.949Z,19.79
2018-10-17T15:02:28.476Z,19.75
2018-10-17T15:04:57.105Z,19.74
2018-10-17T15:07:25.695Z,19.69
2018-10-17T15:09:54.258Z,19.65
2018-10-17T15:12:22.753Z,19.62
2018-10-17T15:14:51.323Z,19.62
2018-10-17T15:17:19.917Z,19.53
2018-10-17T15:19:48.443Z,19.49
2018-10-17T15:22:17.074Z,19.43
2018-10-17T15:24:45.705Z,19.40
2018-10-17T15:27:14.576Z,19.30
2018-10-17T15:29:43.833Z,19.28
2018-10-17T15:32:12.365Z,19.27
2018-10-17T15:34:40.907Z,19.17
2018-10-17T15:37:10.311Z,19.13
2018-10-17T15:39:38.818Z,18.96
2018-10-17T15:42:07.525Z,19.06
2018-10-17T15:44:36.080Z,18.97
2018-10-17T15:47:04.829Z,18.85
2018-10-17T15:49:33.436Z,18.77
2018-10-17T15:52:01.995Z,18.69
2018-10-17T15:54:30.554Z,18.61
2018-10-17T15:56:59.196Z,18.45
2018-10-17T15:59:27.802Z,18.28
2018-10-17T16:01:56.405Z,18.26
2018-10-17T16:04:24.948Z,18.19
2018-10-17T16:06:53.663Z,18.13
2018-10-17T16:09:22.365Z,17.98
2018-10-17T16:11:50.862Z,17.90
2018-10-17T16:14:19.684Z,17.91
2018-10-17T16:16:48.255Z,17.87
2018-10-17T16:19:16.826Z,17.76
2018-10-17T16:21:45.349Z,17.65
2018-10-17T16:24:14.667Z,17.68
2018-10-17T16:26:43.157Z,17.65
2018-10-17T16:29:11.669Z,17.55
2018-10-17T16:31:40.357Z,17.47
2018-10-17T16:34:08.962Z,17.41
2018-10-17T16:36:37.568Z,17.31
2018-10-17T16:39:08.673Z,17.20
2018-10-17T16:41:37.285Z,17.13
2018-10-17T16:44:05.911Z,17.01
2018-10-17T16:46:34.637Z,17.00
2018-10-17T16:49:03.274Z,16.94
2018-10-17T16:51:31.933Z,16.87
2018-10-17T16:54:00.545Z,16.81
2018-10-17T16:56:29.129Z,16.73
2018-10-17T16:59:04.113Z,16.68
2018-10-17T17:01:32.693Z,16.52
2018-10-17T17:04:01.320Z,16.59
2018-10-17T17:06:29.932Z,16.53
2018-10-17T17:08:58.517Z,16.46
2018-10-17T17:11:26.989Z,16.37
2018-10-17T17:13:55.577Z,16.26
2018-10-17T17:16:24.110Z,16.24
2018-10-17T17:18:52.975Z,16.16
2018-10-17T17:21:21.870Z,16.15
2018-10-17T17:23:50.578Z,16.10
2018-10-17T17:26:19.374Z,16.02
2018-10-17T17:28:48.039Z,15.98
2018-10-17T17:31:16.936Z,15.88
2018-10-17T17:33:45.641Z,15.88
2018-10-17T17:36:14.197Z,15.83
2018-10-17T17:38:42.765Z,15.81
2018-10-17T17:41:11.647Z,15.82
2018-10-17T17:43:40.250Z,15.77
2018-10-17T17:46:08.795Z,15.70
2018-10-17T17:48:37.692Z,15.70
2018-10-17T17:51:06.407Z,15.66
2018-10-17T17:53:35.134Z,15.68
2018-10-17T17:56:03.750Z,15.71
2018-10-17T17:58:32.934Z,15.65
2018-10-17T18:01:01.677Z,15.62
2018-10-17T18:03:30.469Z,15.58
2018-10-17T18:05:59.216Z,15.50
2018-10-17T18:08:28.551Z,15.47
2018-10-17T18:10:57.048Z,15.47
2018-10-17T18:13:25.789Z,15.39
2018-10-17T18:15:54.508Z,15.40
2018-10-17T18:18:23.148Z,15.46
2018-10-17T18:20:51.937Z,15.39
2018-10-17T18:23:20.562Z,15.40
2018-10-17T18:25:49.370Z,15.33
2018-10-17T18:28:18.298Z,15.33
2018-10-17T18:30:47.193Z,15.27
2018-10-17T18:33:15.766Z,15.35
2018-10-17T18:35:44.259Z,15.29
2018-10-17T18:38:12.889Z,15.25
2018-10-17T18:40:41.474Z,15.17
2018-10-17T18:43:10.029Z,15.09
2018-10-17T18:45:38.682Z,15.04
2018-10-17T18:48:08.068Z,14.97
2018-10-17T18:50:36.763Z,14.91
2018-10-17T18:53:05.490Z,14.89
2018-10-17T18:55:34.379Z,14.83
2018-10-17T18:58:03.361Z,14.84
2018-10-17T19:00:31.917Z,14.89
2018-10-17T19:03:00.621Z,14.93
2018-10-17T19:05:29.521Z,14.89
2018-10-17T19:07:58.114Z,14.86
2018-10-17T19:10:26.741Z,14.82
2018-10-17T19:12:55.506Z,14.80
2018-10-17T19:15:24.286Z,14.88
2018-10-17T19:17:52.974Z,14.84
2018-10-17T19:20:21.881Z,14.79
2018-10-17T19:22:50.521Z,14.72
2018-10-17T19:25:19.171Z,14.78
2018-10-17T19:27:47.754Z,14.77
2018-10-17T19:30:16.464Z,14.66
2018-10-17T19:32:44.945Z,14.68
2018-10-17T19:35:13.442Z,14.66
2018-10-17T19:37:41.958Z,14.60
2018-10-17T19:40:11.219Z,14.62
2018-10-17T19:42:39.682Z,14.56
2018-10-17T19:45:09.295Z,14.50
2018-10-17T19:47:37.825Z,14.51
2018-10-17T19:50:06.858Z,14.38
2018-10-17T19:52:35.445Z,14.38
2018-10-17T19:55:04.014Z,14.39
2018-10-17T19:57:32.538Z,14.47
2018-10-17T20:00:01.066Z,14.42
2018-10-17T20:02:29.549Z,14.34
2018-10-17T20:04:58.113Z,14.25
2018-10-17T20:07:26.623Z,14.30
2018-10-17T20:09:55.210Z,14.23
2018-10-17T20:12:23.707Z,14.11
2018-10-17T20:14:52.218Z,14.13
2018-10-17T20:17:20.836Z,14.02
2018-10-17T20:19:49.329Z,14.05
2018-10-17T20:22:17.840Z,14.01
2018-10-17T20:24:46.457Z,14.07
2018-10-17T20:27:15.173Z,14.03
2018-10-17T20:29:43.609Z,13.97
2018-10-17T20:32:12.151Z,13.95
2018-10-17T20:34:40.728Z,13.72
2018-10-17T20:37:09.314Z,13.83
2018-10-17T20:39:37.897Z,13.86
2018-10-17T20:42:06.736Z,13.65
2018-10-17T20:44:35.288Z,13.66
2018-10-17T20:47:03.984Z,13.67
2018-10-17T20:49:32.447Z,13.68
2018-10-17T20:52:00.941Z,13.65
2018-10-17T20:54:29.433Z,13.67
2018-10-17T20:56:58.040Z,13.66
2018-10-17T20:59:26.567Z,13.67
2018-10-17T21:01:55.149Z,13.64
2018-10-17T21:04:23.729Z,13.73
2018-10-17T21:06:52.264Z,13.67
2018-10-17T21:09:20.782Z,13.69
2018-10-17T21:11:49.370Z,13.75
2018-10-17T21:14:17.918Z,13.78
2018-10-17T21:16:46.389Z,13.79
2018-10-17T21:19:14.890Z,13.79
2018-10-17T21:21:43.452Z,13.79
2018-10-17T21:24:11.972Z,13.72
2018-10-17T21:26:40.546Z,13.64
2018-10-17T21:29:09.095Z,13.59
2018-10-17T21:31:37.577Z,13.59
2018-10-17T21:34:06.133Z,13.59
2018-10-17T21:36:34.722Z,13.59
2018-10-17T21:39:03.951Z,13.64
2018-10-17T21:41:33.079Z,13.71
2018-10-17T21:44:02.283Z,13.78
2018-10-17T21:46:31.397Z,13.88
2018-10-17T21:49:00.160Z,13.96
2018-10-17T21:51:28.895Z,14.01
2018-10-17T21:53:57.475Z,14.09
2018-10-17T21:56:26.091Z,14.11
2018-10-17T21:58:54.662Z,14.14
2018-10-17T22:01:23.244Z,14.19
2018-10-17T22:03:51.836Z,14.22
2018-10-17T22:06:20.408Z,14.25
2018-10-17T22:08:49.067Z,14.22
2018-10-17T22:11:17.629Z,14.21
2018-10-17T22:13:46.231Z,14.20
2018-10-17T22:16:14.823Z,14.25
2018-10-17T22:18:43.434Z,14.27
2018-10-17T22:21:12.017Z,14.26
2018-10-17T22:23:40.622Z,14.28
2018-10-17T22:26:09.502Z,14.24
2018-10-17T22:28:38.059Z,14.28
2018-10-17T22:31:06.670Z,14.34
2018-10-17T22:33:35.299Z,14.29
2018-10-17T22:36:03.897Z,14.30
2018-10-17T22:38:32.511Z,14.30
2018-10-17T22:41:01.158Z,14.32
2018-10-17T22:43:29.713Z,14.31
2018-10-17T22:45:58.329Z,14.36
2018-10-17T22:48:26.885Z,14.36
2018-10-17T22:50:55.476Z,14.34
2018-10-17T22:53:24.079Z,14.26
2018-10-17T22:55:52.684Z,14.36
2018-10-17T22:58:21.278Z,14.32
2018-10-17T23:00:50.051Z,14.33
2018-10-17T23:03:18.835Z,14.35
2018-10-17T23:05:47.477Z,14.39
2018-10-17T23:08:16.244Z,14.35
2018-10-17T23:10:44.792Z,14.39
2018-10-17T23:13:13.420Z,14.38
2018-10-17T23:15:42.016Z,14.36
2018-10-17T23:18:10.646Z,14.37
2018-10-17T23:20:39.202Z,14.39
2018-10-17T23:23:07.841Z,14.42
2018-10-17T23:25:36.407Z,14.47
2018-10-17T23:28:05.199Z,14.43
2018-10-17T23:30:33.802Z,14.40
2018-10-17T23:33:02.377Z,14.42
2018-10-17T23:35:30.892Z,14.45
2018-10-17T23:37:59.580Z,14.43
2018-10-17T23:40:28.112Z,14.40
2018-10-17T23:42:56.722Z,14.44
2018-10-17T23:45:26.035Z,14.43
2018-10-17T23:47:55.324Z,14.43
2018-10-17T23:50:23.964Z,14.34
2018-10-17T23:52:52.470Z,14.30
2018-10-17T23:55:20.949Z,14.31
2018-10-17T23:57:52.510Z,14.29
